Time;durP1;ratioP1;P1;durP2;ratioP2;P2;SDS_P1;SDS_P2;PMS_P1;PMS_P2;Temp;Humidity;BMP_temperature;BMP_pressure;BME280_temperature;BME280_humidity;BME280_pressure;Samples;Min_cycle;Max_cycle;Signal;HPM_P1;HPM_P2
2023/09/30 00:00:38;;;;;;;12.87;4.17;;;22.90;63.00;;;;;;5013808;28;20494;-76
2023/09/30 00:03:06;;;;;;;10.13;3.90;;;23.00;62.60;;;;;;5014003;28;20535;-74
2023/09/30 00:05:35;;;;;;;8.13;3.70;;;23.00;62.30;;;;;;5027794;28;20554;-76
2023/09/30 00:08:03;;;;;;;11.17;4.13;;;23.10;61.70;;;;;;5033184;28;20435;-76
2023/09/30 00:10:32;;;;;;;6.77;3.20;;;23.10;61.40;;;;;;5033523;28;20497;-74
2023/09/30 00:13:00;;;;;;;7.40;3.70;;;23.10;60.90;;;;;;5033448;28;20459;-76
2023/09/30 00:15:28;;;;;;;7.53;3.20;;;23.20;60.90;;;;;;5033445;28;20520;-76
2023/09/30 00:17:56;;;;;;;8.20;3.77;;;23.20;60.50;;;;;;5032978;28;20457;-76
2023/09/30 00:20:24;;;;;;;12.47;3.43;;;23.20;60.40;;;;;;5031675;28;20958;-76
2023/09/30 00:22:53;;;;;;;7.83;4.13;;;23.20;60.00;;;;;;5033218;28;20422;-75
2023/09/30 00:25:21;;;;;;;6.87;3.63;;;23.30;60.00;;;;;;5033120;28;21009;-75
2023/09/30 00:27:50;;;;;;;12.13;4.13;;;23.30;59.80;;;;;;5033261;28;20792;-77
2023/09/30 00:30:18;;;;;;;11.13;4.00;;;23.30;59.70;;;;;;5032923;28;20485;-76
2023/09/30 00:32:46;;;;;;;7.53;3.37;;;23.30;59.60;;;;;;5033023;28;20406;-76
2023/09/30 00:35:16;;;;;;;9.07;3.67;;;23.30;59.50;;;;;;5032070;28;20505;-75
2023/09/30 00:37:43;;;;;;;7.57;3.57;;;23.30;59.30;;;;;;5013870;28;20410;-78
2023/09/30 00:40:13;;;;;;;6.30;3.37;;;23.30;59.50;;;;;;5020193;28;20474;-77
2023/09/30 00:42:42;;;;;;;8.53;3.40;;;23.30;59.40;;;;;;5032693;28;20423;-78
2023/09/30 00:45:12;;;;;;;10.77;4.30;;;23.30;59.30;;;;;;5033347;28;20521;-77
2023/09/30 00:47:41;;;;;;;9.80;3.80;;;23.30;59.00;;;;;;5031105;28;20440;-77
2023/09/30 00:50:11;;;;;;;9.17;4.00;;;23.30;59.00;;;;;;5032852;28;20471;-77
2023/09/30 00:52:43;;;;;;;9.20;3.80;;;23.30;58.90;;;;;;5030875;28;20443;-76
2023/09/30 00:55:11;;;;;;;10.13;3.57;;;23.30;59.00;;;;;;5032899;28;20456;-77
2023/09/30 00:57:39;;;;;;;9.43;4.10;;;23.30;58.80;;;;;;5032952;28;20439;-77
2023/09/30 01:00:11;;;;;;;5.27;3.00;;;23.30;58.90;;;;;;5033104;28;20431;-78
2023/09/30 01:02:44;;;;;;;9.13;3.93;;;23.20;58.70;;;;;;5033227;28;20462;-77
2023/09/30 01:05:12;;;;;;;6.60;2.97;;;23.20;58.80;;;;;;5028566;28;20467;-77
2023/09/30 01:07:40;;;;;;;8.40;3.53;;;23.20;58.80;;;;;;5033606;28;20444;-79
2023/09/30 01:10:09;;;;;;;8.57;3.30;;;23.20;58.50;;;;;;5030268;28;20493;-78
2023/09/30 01:12:37;;;;;;;10.27;3.57;;;23.20;58.70;;;;;;5015571;28;20467;-78
2023/09/30 01:15:06;;;;;;;6.83;3.53;;;23.10;58.70;;;;;;5032371;28;20494;-78
2023/09/30 01:17:36;;;;;;;7.67;3.20;;;23.10;58.60;;;;;;5031928;28;20501;-78
2023/09/30 01:20:08;;;;;;;8.97;4.13;;;23.10;58.70;;;;;;5032597;28;20522;-78
2023/09/30 01:22:38;;;;;;;7.30;3.10;;;23.10;58.70;;;;;;5032521;28;20447;-78
2023/09/30 01:25:09;;;;;;;10.30;3.90;;;23.10;58.50;;;;;;5032425;28;20547;-78
2023/09/30 01:27:38;;;;;;;8.03;2.93;;;23.10;58.50;;;;;;5031711;28;20522;-78
2023/09/30 01:30:10;;;;;;;7.63;3.50;;;23.10;58.70;;;;;;5032267;28;20467;-78
2023/09/30 01:32:38;;;;;;;8.30;3.60;;;23.10;58.70;;;;;;5032594;28;20478;-79
2023/09/30 01:35:07;;;;;;;8.17;3.67;;;23.00;58.70;;;;;;5032186;28;20778;-77
2023/09/30 01:37:35;;;;;;;6.47;3.33;;;23.00;58.60;;;;;;5032058;28;20530;-78
2023/09/30 01:40:10;;;;;;;7.60;3.77;;;23.10;58.60;;;;;;5032424;28;20460;-76
2023/09/30 01:42:38;;;;;;;7.03;3.17;;;23.10;58.60;;;;;;5032087;28;20439;-77
2023/09/30 01:45:08;;;;;;;8.63;3.70;;;23.10;58.60;;;;;;5031944;28;20459;-78
2023/09/30 01:47:36;;;;;;;7.37;3.60;;;23.00;58.60;;;;;;5032282;28;20534;-78
2023/09/30 01:50:04;;;;;;;7.50;3.17;;;23.00;58.60;;;;;;5031918;28;20481;-77
2023/09/30 01:52:32;;;;;;;9.10;3.73;;;23.00;58.50;;;;;;5032651;28;20449;-78
2023/09/30 01:55:00;;;;;;;5.00;3.43;;;23.00;58.60;;;;;;5032067;28;20574;-77
2023/09/30 01:57:30;;;;;;;7.50;3.63;;;23.00;58.70;;;;;;5032127;28;20443;-77
2023/09/30 01:59:58;;;;;;;15.97;8.30;;;23.00;58.60;;;;;;5029730;28;20974;-78
2023/09/30 02:02:27;;;;;;;21.23;10.40;;;23.00;58.50;;;;;;5024419;28;20494;-77
2023/09/30 02:04:55;;;;;;;21.17;13.30;;;23.00;58.40;;;;;;5010957;28;20471;-77
2023/09/30 02:07:23;;;;;;;23.73;12.90;;;23.00;58.50;;;;;;5024465;28;20440;-78
2023/09/30 02:09:51;;;;;;;18.00;11.87;;;23.00;58.40;;;;;;5012621;28;20482;-76
2023/09/30 02:12:19;;;;;;;24.73;13.80;;;22.90;58.70;;;;;;5028581;28;20431;-78
2023/09/30 02:14:48;;;;;;;25.63;15.20;;;22.90;58.50;;;;;;5032415;28;20462;-78
2023/09/30 02:17:17;;;;;;;26.70;15.17;;;22.90;58.30;;;;;;5032267;28;20535;-77
2023/09/30 02:19:45;;;;;;;28.77;16.97;;;22.80;58.60;;;;;;5031706;28;20475;-77
2023/09/30 02:22:13;;;;;;;24.87;14.80;;;22.90;58.60;;;;;;5027778;28;20537;-77
2023/09/30 02:24:41;;;;;;;26.33;16.10;;;22.90;58.80;;;;;;5023378;28;20509;-77
2023/09/30 02:27:09;;;;;;;28.40;17.70;;;22.80;58.70;;;;;;5031625;28;20475;-74
2023/09/30 02:29:37;;;;;;;25.10;15.43;;;22.80;58.50;;;;;;5033778;28;20463;-77
2023/09/30 02:32:07;;;;;;;30.13;18.30;;;22.90;58.70;;;;;;5034998;28;20545;-76
2023/09/30 02:34:35;;;;;;;33.97;18.60;;;22.80;58.40;;;;;;5035071;28;20435;-76
2023/09/30 02:37:03;;;;;;;27.10;17.17;;;22.80;58.70;;;;;;5035036;28;20449;-77
2023/09/30 02:39:31;;;;;;;27.10;16.40;;;22.80;58.60;;;;;;5023226;28;20447;-78
2023/09/30 02:41:59;;;;;;;28.67;16.93;;;22.80;58.50;;;;;;5015439;28;20452;-77
2023/09/30 02:44:27;;;;;;;26.70;16.00;;;22.80;58.60;;;;;;5015279;28;20476;-77
2023/09/30 02:46:55;;;;;;;26.20;15.93;;;22.80;58.50;;;;;;5015273;28;20450;-78
2023/09/30 02:49:24;;;;;;;27.27;16.20;;;22.80;58.50;;;;;;5015179;28;20449;-77
2023/09/30 02:51:52;;;;;;;25.33;15.03;;;22.70;58.50;;;;;;5014938;28;20444;-78
2023/09/30 02:54:19;;;;;;;26.93;16.90;;;22.70;58.60;;;;;;5014865;28;20542;-77
2023/09/30 02:56:48;;;;;;;25.20;15.90;;;22.80;58.50;;;;;;5025046;28;20555;-77
2023/09/30 02:59:17;;;;;;;26.37;14.93;;;22.70;58.40;;;;;;5034846;28;20509;-77
2023/09/30 03:01:45;;;;;;;24.17;14.07;;;22.70;58.70;;;;;;5034662;28;20475;-76
2023/09/30 03:04:13;;;;;;;25.00;15.83;;;22.70;58.40;;;;;;5034826;28;20449;-76
2023/09/30 03:06:44;;;;;;;23.73;13.60;;;22.70;58.50;;;;;;5030064;28;20475;-77
2023/09/30 03:09:15;;;;;;;24.40;14.73;;;22.70;58.30;;;;;;5034679;28;20442;-77
2023/09/30 03:11:43;;;;;;;24.20;14.50;;;22.60;58.60;;;;;;5033501;28;20479;-76
2023/09/30 03:14:12;;;;;;;23.10;14.10;;;22.60;58.40;;;;;;5021187;28;20437;-77
2023/09/30 03:16:41;;;;;;;24.07;14.33;;;22.60;58.60;;;;;;5014673;28;20459;-76
2023/09/30 03:19:11;;;;;;;23.33;14.40;;;22.60;58.70;;;;;;5014761;28;20444;-77
2023/09/30 03:21:39;;;;;;;21.43;13.80;;;22.60;58.70;;;;;;5014047;28;20432;-77
2023/09/30 03:24:09;;;;;;;22.97;13.80;;;22.60;59.20;;;;;;5014727;28;20480;-77
2023/09/30 03:26:40;;;;;;;24.33;13.77;;;22.70;58.60;;;;;;5023555;28;20479;-77
2023/09/30 03:29:09;;;;;;;20.70;13.03;;;22.60;58.60;;;;;;5033814;28;20591;-77
2023/09/30 03:31:37;;;;;;;23.17;14.77;;;22.60;58.40;;;;;;5033784;28;20442;-76
2023/09/30 03:34:05;;;;;;;22.67;13.60;;;22.60;58.50;;;;;;5033991;28;20909;-75
2023/09/30 03:36:33;;;;;;;21.37;12.50;;;22.60;58.60;;;;;;5033690;28;20523;-75
2023/09/30 03:39:05;;;;;;;19.90;11.30;;;22.60;58.40;;;;;;5033502;28;20440;-76
2023/09/30 03:41:36;;;;;;;18.90;11.97;;;22.60;58.90;;;;;;5034235;28;20478;-76
2023/09/30 03:44:04;;;;;;;24.07;12.70;;;22.60;58.60;;;;;;5033178;28;20949;-76
2023/09/30 03:46:32;;;;;;;22.90;12.27;;;22.60;58.40;;;;;;5034604;28;20525;-78
2023/09/30 03:49:00;;;;;;;19.00;11.90;;;22.60;58.40;;;;;;5034564;28;20483;-78
2023/09/30 03:51:28;;;;;;;18.40;11.03;;;22.60;58.40;;;;;;5034139;28;20475;-78
2023/09/30 03:53:57;;;;;;;21.30;11.90;;;22.60;58.40;;;;;;5034447;28;20470;-75
2023/09/30 03:56:25;;;;;;;16.70;10.80;;;22.60;58.40;;;;;;5033853;28;20479;-77
2023/09/30 03:58:55;;;;;;;17.90;10.60;;;22.60;58.60;;;;;;5033879;28;20471;-77
2023/09/30 04:01:23;;;;;;;17.77;10.80;;;22.60;58.40;;;;;;5033686;28;20422;-77
2023/09/30 04:03:54;;;;;;;19.37;11.10;;;22.60;58.60;;;;;;5033718;28;20443;-77
2023/09/30 04:06:23;;;;;;;17.50;10.23;;;22.60;58.50;;;;;;5029524;28;20520;-77
2023/09/30 04:08:51;;;;;;;16.10;10.50;;;22.50;58.10;;;;;;5033389;28;20467;-76
2023/09/30 04:11:20;;;;;;;18.37;10.10;;;22.50;58.40;;;;;;5033622;28;20478;-77
2023/09/30 04:13:49;;;;;;;11.90;8.33;;;22.50;58.50;;;;;;5033369;28;20457;-77
2023/09/30 04:16:19;;;;;;;18.93;10.40;;;22.50;58.30;;;;;;5033181;28;20558;-76
2023/09/30 04:18:50;;;;;;;16.90;9.97;;;22.50;58.30;;;;;;5013756;28;20484;-76
2023/09/30 04:21:18;;;;;;;16.23;9.30;;;22.50;58.40;;;;;;5013657;28;20448;-77
2023/09/30 04:23:46;;;;;;;12.97;8.60;;;22.50;58.30;;;;;;5013832;28;20448;-77
2023/09/30 04:26:15;;;;;;;17.63;9.50;;;22.50;58.40;;;;;;5013579;28;20496;-77
2023/09/30 04:28:43;;;;;;;15.30;9.83;;;22.50;58.60;;;;;;5013945;28;20785;-77
2023/09/30 04:31:12;;;;;;;13.77;8.80;;;22.50;58.20;;;;;;5013450;28;20476;-77
2023/09/30 04:33:42;;;;;;;13.60;8.60;;;22.50;58.30;;;;;;5023509;28;20455;-77
2023/09/30 04:36:11;;;;;;;15.30;8.93;;;22.50;58.20;;;;;;5033779;28;20521;-77
2023/09/30 04:38:39;;;;;;;13.40;8.80;;;22.50;58.20;;;;;;5033333;28;20436;-77
2023/09/30 04:41:08;;;;;;;16.17;9.00;;;22.50;58.10;;;;;;5033309;28;20432;-77
2023/09/30 04:43:37;;;;;;;14.53;8.87;;;22.50;58.20;;;;;;5032988;28;20479;-77
2023/09/30 04:46:07;;;;;;;14.43;7.73;;;22.40;58.30;;;;;;5032893;28;20491;-77
2023/09/30 04:48:35;;;;;;;13.93;8.03;;;22.50;58.30;;;;;;5032869;28;20546;-77
2023/09/30 04:51:08;;;;;;;13.30;8.40;;;22.40;58.00;;;;;;5023749;28;20503;-77
2023/09/30 04:53:36;;;;;;;13.93;8.83;;;22.50;58.30;;;;;;5020034;28;20421;-74
2023/09/30 04:56:05;;;;;;;13.93;8.13;;;22.40;58.40;;;;;;5032409;28;20898;-76
2023/09/30 04:58:33;;;;;;;13.93;8.20;;;22.40;58.30;;;;;;5032966;28;20451;-77
2023/09/30 05:01:01;;;;;;;13.43;7.30;;;22.40;58.10;;;;;;5032932;28;20509;-76
2023/09/30 05:03:29;;;;;;;14.33;8.20;;;22.40;58.40;;;;;;5032486;28;20476;-76
2023/09/30 05:05:58;;;;;;;15.03;7.70;;;22.40;58.20;;;;;;5032341;28;20474;-76
2023/09/30 05:08:28;;;;;;;13.37;7.70;;;22.40;58.20;;;;;;5031740;28;20487;-75
2023/09/30 05:10:57;;;;;;;11.07;7.13;;;22.40;58.20;;;;;;5032418;28;20447;-76
2023/09/30 05:13:24;;;;;;;10.70;7.03;;;22.40;58.40;;;;;;5032511;28;20448;-76
2023/09/30 05:15:52;;;;;;;11.30;7.40;;;22.40;58.20;;;;;;5032255;28;20531;-76
2023/09/30 05:18:20;;;;;;;11.13;7.40;;;22.40;58.20;;;;;;5032309;28;20439;-75
2023/09/30 05:20:49;;;;;;;13.60;8.20;;;22.40;58.10;;;;;;5027562;28;20490;-75
2023/09/30 05:23:18;;;;;;;11.80;6.60;;;22.30;58.00;;;;;;5031546;28;20422;-75
2023/09/30 05:25:48;;;;;;;13.40;7.47;;;22.30;58.30;;;;;;5032021;28;20486;-76
2023/09/30 05:28:16;;;;;;;10.90;7.17;;;22.30;58.40;;;;;;5012424;28;20510;-77
2023/09/30 05:30:45;;;;;;;10.77;6.53;;;22.30;58.10;;;;;;5012297;28;20445;-76
2023/09/30 05:33:14;;;;;;;8.00;5.70;;;22.30;58.20;;;;;;5011955;28;20477;-77
2023/09/30 05:35:42;;;;;;;12.10;7.07;;;22.30;58.10;;;;;;5012339;28;20506;-77
2023/09/30 05:38:12;;;;;;;13.47;7.17;;;22.30;58.10;;;;;;5013322;28;20542;-76
2023/09/30 05:40:41;;;;;;;9.83;6.03;;;22.30;58.20;;;;;;5032534;28;20432;-77
2023/09/30 05:43:13;;;;;;;10.17;6.80;;;22.30;58.20;;;;;;5032372;28;20493;-76
2023/09/30 05:45:48;;;;;;;9.63;6.40;;;22.20;58.00;;;;;;5032602;28;20539;-77
2023/09/30 05:48:17;;;;;;;11.30;6.60;;;22.20;58.40;;;;;;5032226;28;20467;-77
2023/09/30 05:50:45;;;;;;;11.97;6.50;;;22.20;58.30;;;;;;5032400;28;20451;-75
2023/09/30 05:53:14;;;;;;;11.43;6.33;;;22.20;58.40;;;;;;5031883;28;20467;-77
2023/09/30 05:55:43;;;;;;;9.83;5.80;;;22.20;58.20;;;;;;5017719;28;20492;-75
2023/09/30 05:58:14;;;;;;;9.50;6.00;;;22.30;58.20;;;;;;5012260;28;20513;-77
2023/09/30 06:00:42;;;;;;;8.67;5.50;;;22.30;58.30;;;;;;5012500;28;20954;-73
2023/09/30 06:03:10;;;;;;;9.97;6.07;;;22.30;58.20;;;;;;5014049;28;20498;-76
2023/09/30 06:05:40;;;;;;;7.90;5.00;;;22.30;58.00;;;;;;5016372;28;20460;-76
2023/09/30 06:08:10;;;;;;;8.47;5.30;;;22.20;58.20;;;;;;5015805;28;20420;-77
2023/09/30 06:10:42;;;;;;;8.80;5.90;;;22.20;58.00;;;;;;5018387;28;20456;-76
2023/09/30 06:13:12;;;;;;;8.77;5.47;;;22.30;58.30;;;;;;5035358;28;20977;-78
2023/09/30 06:15:41;;;;;;;10.13;5.60;;;22.30;58.30;;;;;;5035874;28;20467;-77
2023/09/30 06:18:12;;;;;;;8.03;5.73;;;22.30;58.10;;;;;;5035944;28;20439;-78
2023/09/30 06:20:39;;;;;;;9.57;5.40;;;22.30;58.00;;;;;;5030982;28;20459;-78
2023/09/30 06:23:07;;;;;;;11.00;5.40;;;22.30;58.00;;;;;;5035572;28;20505;-78
2023/09/30 06:25:36;;;;;;;7.90;5.07;;;22.30;58.10;;;;;;5035214;28;20456;-77
2023/09/30 06:28:05;;;;;;;8.67;5.17;;;22.30;58.00;;;;;;5034454;28;20456;-77
2023/09/30 06:30:35;;;;;;;12.43;5.93;;;22.40;57.90;;;;;;5035499;28;20480;-78
2023/09/30 06:33:04;;;;;;;7.77;5.07;;;22.40;57.80;;;;;;5035156;28;20473;-75
2023/09/30 06:35:37;;;;;;;13.10;5.13;;;22.40;57.90;;;;;;5035390;28;20467;-78
2023/09/30 06:38:06;;;;;;;9.20;5.10;;;22.40;57.80;;;;;;5035752;28;20450;-77
2023/09/30 06:40:35;;;;;;;7.03;4.90;;;22.40;57.80;;;;;;5035873;28;20454;-77
2023/09/30 06:43:07;;;;;;;8.90;4.77;;;22.40;57.80;;;;;;5034278;28;20427;-77
2023/09/30 06:45:41;;;;;;;6.50;4.67;;;22.50;57.80;;;;;;5020765;28;20451;-77
2023/09/30 06:48:13;;;;;;;6.50;4.53;;;22.50;57.60;;;;;;5035874;28;20424;-77
2023/09/30 06:50:44;;;;;;;7.80;4.73;;;22.50;57.90;;;;;;5036648;28;20514;-76
2023/09/30 06:53:12;;;;;;;7.13;4.83;;;22.50;57.80;;;;;;5036302;28;20475;-77
2023/09/30 06:55:40;;;;;;;9.83;5.03;;;22.60;57.90;;;;;;5035149;28;20482;-78
2023/09/30 06:58:10;;;;;;;12.53;4.50;;;22.60;58.20;;;;;;5035987;28;20772;-77
2023/09/30 07:00:41;;;;;;;6.53;4.53;;;22.60;57.40;;;;;;5035152;28;20471;-76
2023/09/30 07:03:09;;;;;;;6.57;4.37;;;22.60;57.50;;;;;;5034475;28;20547;-77
2023/09/30 07:05:37;;;;;;;6.93;4.40;;;22.60;57.50;;;;;;5035722;28;20494;-77
2023/09/30 07:08:06;;;;;;;5.40;3.90;;;22.70;57.70;;;;;;5035301;28;20501;-77
2023/09/30 07:10:34;;;;;;;5.80;4.07;;;22.70;57.40;;;;;;5035181;28;20531;-77
2023/09/30 07:13:03;;;;;;;9.97;4.00;;;22.70;57.40;;;;;;5035158;28;20467;-74
2023/09/30 07:15:31;;;;;;;10.83;5.10;;;22.80;57.60;;;;;;5034529;28;20589;-77
2023/09/30 07:18:00;;;;;;;5.10;3.97;;;22.80;57.60;;;;;;5033370;28;20451;-77
2023/09/30 07:20:32;;;;;;;7.50;4.17;;;22.80;57.50;;;;;;5010463;28;20982;-75
2023/09/30 07:23:00;;;;;;;6.50;4.30;;;22.90;57.50;;;;;;5014826;28;20409;-77
2023/09/30 07:25:45;;;;;;;7.57;3.97;;;22.90;57.40;;;;;;5027472;28;20459;-75
2023/09/30 07:28:13;;;;;;;6.90;4.20;;;22.90;57.60;;;;;;5034012;28;20432;-75
2023/09/30 07:30:41;;;;;;;5.40;4.40;;;23.00;57.50;;;;;;5034280;28;20434;-76
2023/09/30 07:33:10;;;;;;;6.07;3.90;;;23.00;57.30;;;;;;5029540;28;20486;-75
2023/09/30 07:35:39;;;;;;;5.23;4.10;;;23.00;57.40;;;;;;5034778;28;20448;-76
2023/09/30 07:38:07;;;;;;;7.93;4.70;;;23.10;57.50;;;;;;5028698;28;20444;-76
2023/09/30 07:40:36;;;;;;;5.03;4.00;;;23.10;57.40;;;;;;5034011;28;20418;-76
2023/09/30 07:43:04;;;;;;;4.10;3.70;;;23.20;57.30;;;;;;5033917;28;20439;-76
2023/09/30 07:45:32;;;;;;;6.23;4.10;;;23.20;57.10;;;;;;5034541;28;20490;-76
2023/09/30 07:48:03;;;;;;;5.20;3.60;;;23.20;57.30;;;;;;5035991;28;20470;-75
2023/09/30 07:50:33;;;;;;;6.90;4.40;;;23.30;57.30;;;;;;5034295;28;20538;-77
2023/09/30 07:53:02;;;;;;;7.50;4.30;;;23.30;57.30;;;;;;5033696;28;20470;-75
2023/09/30 07:55:30;;;;;;;5.17;3.93;;;23.40;57.30;;;;;;5033766;28;20485;-76
2023/09/30 07:57:59;;;;;;;6.47;4.30;;;23.40;57.20;;;;;;5033520;28;20448;-77
2023/09/30 08:00:28;;;;;;;7.17;4.70;;;23.50;57.20;;;;;;5033844;28;20452;-76
2023/09/30 08:02:56;;;;;;;6.37;4.93;;;23.60;57.30;;;;;;5033289;28;20439;-77
2023/09/30 08:05:24;;;;;;;5.80;4.50;;;23.60;57.10;;;;;;5033555;28;20486;-76
2023/09/30 08:07:54;;;;;;;7.97;4.40;;;23.70;57.10;;;;;;5032122;28;20987;-76
2023/09/30 08:10:21;;;;;;;8.80;5.10;;;23.70;57.10;;;;;;5033716;28;20449;-75
2023/09/30 08:12:50;;;;;;;6.10;4.60;;;23.70;57.20;;;;;;5034615;28;20479;-76
2023/09/30 08:15:18;;;;;;;6.27;4.37;;;23.80;57.40;;;;;;5035453;28;20446;-76
2023/09/30 08:17:47;;;;;;;8.17;4.57;;;23.80;57.50;;;;;;5035242;28;20447;-76
2023/09/30 08:20:15;;;;;;;5.00;4.23;;;23.90;57.60;;;;;;5031576;28;20443;-77
2023/09/30 08:22:44;;;;;;;7.47;4.70;;;24.00;57.70;;;;;;5035298;28;20446;-75
2023/09/30 08:25:13;;;;;;;5.93;4.97;;;24.10;57.80;;;;;;5033409;28;20446;-76
2023/09/30 08:27:42;;;;;;;5.50;4.23;;;24.20;57.80;;;;;;5033903;28;20509;-76
2023/09/30 08:30:10;;;;;;;7.90;5.50;;;24.30;57.80;;;;;;5034081;28;20994;-76
2023/09/30 08:32:39;;;;;;;5.83;4.27;;;24.40;57.90;;;;;;5033162;28;20444;-75
2023/09/30 08:35:09;;;;;;;7.50;5.00;;;24.60;57.80;;;;;;5033473;28;20468;-75
2023/09/30 08:37:37;;;;;;;5.93;4.73;;;24.70;57.70;;;;;;5033240;28;20444;-75
2023/09/30 08:40:09;;;;;;;7.00;5.10;;;24.80;57.70;;;;;;5031843;28;20887;-73
2023/09/30 08:42:40;;;;;;;12.23;4.70;;;25.00;57.70;;;;;;5031883;28;20457;-74
2023/09/30 08:45:11;;;;;;;6.57;4.77;;;25.10;57.60;;;;;;5032220;28;20874;-76
2023/09/30 08:47:39;;;;;;;7.00;4.53;;;25.20;57.50;;;;;;5031969;28;20530;-76
2023/09/30 08:50:10;;;;;;;4.70;3.90;;;25.40;57.60;;;;;;5032416;28;20422;-76
2023/09/30 08:52:38;;;;;;;6.50;4.87;;;25.50;57.50;;;;;;5032129;28;20432;-76
2023/09/30 08:55:08;;;;;;;5.60;4.37;;;25.70;57.40;;;;;;5031329;28;20453;-75
2023/09/30 08:57:39;;;;;;;5.47;4.10;;;25.80;57.40;;;;;;5029822;28;20455;-76
2023/09/30 09:00:12;;;;;;;6.53;4.60;;;26.00;57.20;;;;;;5014984;28;20444;-75
2023/09/30 09:02:41;;;;;;;5.83;4.03;;;26.10;57.30;;;;;;5012018;28;20450;-76
2023/09/30 09:05:11;;;;;;;6.07;4.23;;;26.30;57.20;;;;;;5010988;28;20431;-77
2023/09/30 09:07:39;;;;;;;4.50;4.00;;;26.50;57.10;;;;;;5011082;28;20411;-76
2023/09/30 09:10:07;;;;;;;5.00;3.70;;;26.60;57.10;;;;;;5009860;28;20505;-76
2023/09/30 09:12:36;;;;;;;4.30;3.93;;;26.80;56.90;;;;;;5010305;28;20539;-76
2023/09/30 09:15:06;;;;;;;5.10;4.30;;;27.00;56.80;;;;;;5026307;28;20544;-76
2023/09/30 09:17:43;;;;;;;4.77;4.30;;;27.20;56.90;;;;;;5010907;28;20419;-77
2023/09/30 09:20:14;;;;;;;6.83;4.10;;;27.40;56.50;;;;;;5012143;28;20469;-76
2023/09/30 09:22:42;;;;;;;6.40;4.23;;;27.60;56.50;;;;;;5019422;28;20466;-76
2023/09/30 09:25:10;;;;;;;4.43;4.03;;;27.80;56.40;;;;;;5031437;28;20459;-76
2023/09/30 09:27:38;;;;;;;6.67;4.10;;;27.90;56.10;;;;;;5031907;28;20513;-76
2023/09/30 09:30:17;;;;;;;5.43;4.20;;;28.10;56.00;;;;;;5031192;28;20422;-76
2023/09/30 09:32:54;;;;;;;4.53;3.90;;;28.20;55.90;;;;;;5029988;28;20485;-76
2023/09/30 09:35:25;;;;;;;4.23;3.83;;;28.40;55.90;;;;;;5013312;28;20894;-76
2023/09/30 09:37:57;;;;;;;4.30;3.90;;;28.60;55.80;;;;;;5030255;28;20439;-77
2023/09/30 09:40:26;;;;;;;4.63;4.10;;;28.70;55.50;;;;;;5035377;28;20491;-77
2023/09/30 09:42:55;;;;;;;3.70;3.40;;;28.90;55.40;;;;;;5040824;28;20482;-77
2023/09/30 09:45:25;;;;;;;4.00;3.37;;;29.10;55.40;;;;;;5049893;28;20425;-77
2023/09/30 09:47:55;;;;;;;3.77;3.47;;;29.20;55.10;;;;;;5022305;28;20466;-79
2023/09/30 09:50:23;;;;;;;4.83;3.70;;;29.40;54.90;;;;;;5028686;28;20443;-77
2023/09/30 09:52:53;;;;;;;4.70;3.47;;;29.60;54.80;;;;;;5030893;28;20443;-78
2023/09/30 09:55:21;;;;;;;4.93;3.33;;;29.70;54.60;;;;;;5030237;28;20473;-78
2023/09/30 09:57:50;;;;;;;5.83;3.50;;;29.90;54.50;;;;;;5030463;28;20469;-76
2023/09/30 10:00:18;;;;;;;9.00;3.60;;;30.10;54.30;;;;;;5033267;28;20432;-79
2023/09/30 10:02:46;;;;;;;12.50;2.80;;;29.80;51.10;;;;;;5033455;28;20550;-78
2023/09/30 10:05:16;;;;;;;6.60;3.00;;;29.20;50.60;;;;;;5018059;28;20467;-78
2023/09/30 10:07:47;;;;;;;5.57;2.60;;;29.00;50.40;;;;;;5032627;28;20410;-78
2023/09/30 10:10:16;;;;;;;6.07;2.77;;;28.80;49.60;;;;;;5027183;28;20440;-78
2023/09/30 10:12:44;;;;;;;12.03;2.70;;;28.70;50.60;;;;;;5034483;28;20523;-79
2023/09/30 10:15:39;;;;;;;8.63;2.70;;;28.50;49.60;;;;;;5034147;28;20503;-79
2023/09/30 10:18:08;;;;;;;5.47;3.10;;;28.40;50.30;;;;;;5031237;28;20436;-78
2023/09/30 10:20:44;;;;;;;17.87;3.37;;;28.60;49.90;;;;;;5034126;28;20482;-80
2023/09/30 10:23:24;;;;;;;12.00;3.07;;;28.50;49.40;;;;;;5038126;28;20466;-79
2023/09/30 10:25:57;;;;;;;6.80;2.93;;;28.60;50.10;;;;;;5037034;28;20429;-78
2023/09/30 10:28:38;;;;;;;8.83;4.73;;;28.70;50.40;;;;;;5033933;28;20439;-80
2023/09/30 10:31:10;;;;;;;18.60;8.80;;;29.00;50.60;;;;;;5032277;28;20406;-79
2023/09/30 10:34:12;;;;;;;10.23;5.23;;;28.90;49.80;;;;;;5033165;28;20496;-79
2023/09/30 10:36:41;;;;;;;10.17;4.80;;;28.70;47.80;;;;;;5031510;28;20892;-78
2023/09/30 10:39:13;;;;;;;6.93;4.00;;;28.80;49.80;;;;;;5032310;28;20474;-79
2023/09/30 10:41:50;;;;;;;7.33;3.10;;;29.10;49.20;;;;;;5025787;28;20460;-79
2023/09/30 10:44:34;;;;;;;6.93;2.90;;;29.00;47.50;;;;;;5032198;28;20463;-81
2023/09/30 10:47:37;;;;;;;5.80;2.93;;;28.80;47.20;;;;;;5034055;28;20406;-80
2023/09/30 10:50:05;;;;;;;7.83;3.10;;;28.80;48.20;;;;;;5036366;28;20435;-80
2023/09/30 10:52:35;;;;;;;9.47;5.00;;;28.90;48.70;;;;;;5039181;28;20467;-79
2023/09/30 10:55:05;;;;;;;5.50;2.70;;;29.30;48.40;;;;;;5037157;28;20483;-80
2023/09/30 10:57:33;;;;;;;6.13;2.40;;;29.10;47.00;;;;;;5035341;28;20440;-82
2023/09/30 11:00:11;;;;;;;5.40;1.90;;;29.10;46.80;;;;;;5041046;28;20414;-80
2023/09/30 11:02:50;;;;;;;14.70;2.50;;;29.00;46.90;;;;;;5043379;28;20428;-82
2023/09/30 11:05:20;;;;;;;5.83;2.40;;;29.10;46.90;;;;;;5040547;28;20989;-79
2023/09/30 11:08:10;;;;;;;10.13;3.37;;;29.20;48.20;;;;;;5036054;28;20417;-78
2023/09/30 11:10:38;;;;;;;6.90;2.50;;;29.30;47.00;;;;;;5039319;28;20440;-81
2023/09/30 11:13:06;;;;;;;6.37;2.00;;;29.20;47.00;;;;;;5041287;28;20453;-79
2023/09/30 11:15:33;;;;;;;4.87;2.60;;;29.00;46.30;;;;;;5037918;28;20562;-78
2023/09/30 11:18:14;;;;;;;5.47;2.07;;;28.90;45.60;;;;;;5038468;28;20410;-79
2023/09/30 11:20:43;;;;;;;9.80;2.50;;;28.70;47.00;;;;;;5035061;28;20439;-77
2023/09/30 11:23:14;;;;;;;11.93;2.53;;;28.20;46.10;;;;;;5035900;28;20430;-78
2023/09/30 11:25:42;;;;;;;8.87;2.90;;;28.40;47.60;;;;;;5031234;28;20490;-79
2023/09/30 11:28:15;;;;;;;6.30;2.67;;;28.60;47.40;;;;;;5037890;28;20445;-78
2023/09/30 11:30:56;;;;;;;2.70;1.90;;;28.70;47.20;;;;;;5035818;28;20519;-79
2023/09/30 11:33:24;;;;;;;4.60;2.10;;;28.90;46.00;;;;;;5038000;28;20440;-79
2023/09/30 11:36:02;;;;;;;8.27;2.23;;;28.60;47.00;;;;;;5037698;28;20471;-79
2023/09/30 11:38:31;;;;;;;9.40;2.07;;;28.50;46.10;;;;;;5036516;28;20522;-79
2023/09/30 11:41:02;;;;;;;8.60;2.10;;;28.60;47.10;;;;;;5036510;28;20940;-79
2023/09/30 11:43:30;;;;;;;4.10;2.03;;;28.80;47.00;;;;;;5037569;28;20448;-80
2023/09/30 11:46:08;;;;;;;9.83;2.77;;;29.00;45.60;;;;;;5037651;28;20460;-80
2023/09/30 11:48:37;;;;;;;10.07;5.10;;;29.10;46.10;;;;;;5036035;28;20921;-79
2023/09/30 11:51:05;;;;;;;5.50;2.40;;;29.10;45.80;;;;;;5035877;28;20534;-80
2023/09/30 11:53:36;;;;;;;7.13;2.10;;;29.10;45.20;;;;;;5037555;28;20859;-80
2023/09/30 11:56:04;;;;;;;7.97;2.57;;;28.90;44.60;;;;;;5036627;28;20557;-82
2023/09/30 11:58:33;;;;;;;6.43;2.30;;;28.80;44.60;;;;;;5030572;28;20459;-81
2023/09/30 12:01:01;;;;;;;4.37;2.20;;;28.90;45.00;;;;;;5038566;28;20464;-80
2023/09/30 12:03:29;;;;;;;3.07;1.60;;;29.20;44.60;;;;;;5039145;28;20452;-80
2023/09/30 12:06:00;;;;;;;3.40;1.97;;;28.90;43.50;;;;;;5037394;28;20455;-80
2023/09/30 12:08:29;;;;;;;3.20;1.93;;;28.80;44.40;;;;;;5036023;28;20414;-78
2023/09/30 12:10:59;;;;;;;7.50;2.33;;;29.00;43.10;;;;;;5031845;28;20455;-79
2023/09/30 12:13:27;;;;;;;9.27;2.60;;;29.10;44.10;;;;;;5037040;28;20415;-79
2023/09/30 12:15:57;;;;;;;5.20;2.70;;;29.20;43.20;;;;;;5036247;28;20506;-78
2023/09/30 12:18:26;;;;;;;4.17;2.00;;;29.50;44.00;;;;;;5040620;28;20450;-78
2023/09/30 12:20:54;;;;;;;7.73;2.00;;;29.70;43.50;;;;;;5042091;28;20478;-79
2023/09/30 12:23:23;;;;;;;5.73;2.33;;;29.70;42.70;;;;;;5037697;28;20498;-79
2023/09/30 12:25:52;;;;;;;5.00;1.90;;;29.80;43.00;;;;;;5037845;28;20482;-78
2023/09/30 12:28:40;;;;;;;6.10;3.27;;;30.00;42.80;;;;;;5034280;28;20444;-78
2023/09/30 12:31:10;;;;;;;6.30;3.73;;;30.50;43.00;;;;;;5034592;28;20447;-79
2023/09/30 12:33:39;;;;;;;4.33;2.93;;;30.50;42.30;;;;;;5034997;28;20454;-79
2023/09/30 12:36:08;;;;;;;7.93;3.47;;;30.40;41.00;;;;;;5036809;28;20554;-79
2023/09/30 12:38:36;;;;;;;4.13;2.20;;;30.50;42.30;;;;;;5035530;28;20482;-78
2023/09/30 12:41:04;;;;;;;5.23;2.20;;;30.60;40.50;;;;;;5032632;28;20511;-79
2023/09/30 12:43:32;;;;;;;3.97;2.10;;;30.70;41.20;;;;;;5033611;28;20478;-80
2023/09/30 12:46:02;;;;;;;5.27;2.03;;;30.60;40.80;;;;;;5033752;28;20486;-79
2023/09/30 12:48:30;;;;;;;5.43;2.17;;;30.60;41.10;;;;;;5037892;28;20435;-80
2023/09/30 12:50:58;;;;;;;6.53;1.83;;;30.80;40.70;;;;;;5037255;28;20451;-79
2023/09/30 12:53:26;;;;;;;3.10;1.70;;;30.90;40.00;;;;;;5034174;28;20981;-79